sensor_id;sensor_type;location;lat;lon;timestamp;temperature;humidity
50548;DHT22;38013;48.810;8.818;2023-04-25T00:02:12;9.90;68.10
50548;DHT22;38013;48.810;8.818;2023-04-25T00:04:39;9.80;68.10
50548;DHT22;38013;48.810;8.818;2023-04-25T00:07:07;9.80;68.00
50548;DHT22;38013;48.810;8.818;2023-04-25T00:09:34;9.80;68.20
50548;DHT22;38013;48.810;8.818;2023-04-25T00:12:01;9.80;68.40
50548;DHT22;38013;48.810;8.818;2023-04-25T00:14:29;9.80;68.50
50548;DHT22;38013;48.810;8.818;2023-04-25T00:16:56;9.80;68.60
50548;DHT22;38013;48.810;8.818;2023-04-25T00:19:22;9.80;68.60
50548;DHT22;38013;48.810;8.818;2023-04-25T00:21:49;9.80;68.80
50548;DHT22;38013;48.810;8.818;2023-04-25T00:24:16;9.80;68.80
50548;DHT22;38013;48.810;8.818;2023-04-25T00:26:43;9.80;68.90
50548;DHT22;38013;48.810;8.818;2023-04-25T00:29:10;9.90;69.10
50548;DHT22;38013;48.810;8.818;2023-04-25T00:31:37;9.80;69.00
50548;DHT22;38013;48.810;8.818;2023-04-25T00:34:06;9.90;69.10
50548;DHT22;38013;48.810;8.818;2023-04-25T00:36:35;9.90;69.30
50548;DHT22;38013;48.810;8.818;2023-04-25T00:39:02;9.90;69.20
50548;DHT22;38013;48.810;8.818;2023-04-25T00:41:30;9.90;69.00
50548;DHT22;38013;48.810;8.818;2023-04-25T00:43:59;10.00;69.00
50548;DHT22;38013;48.810;8.818;2023-04-25T00:46:26;10.00;69.00
50548;DHT22;38013;48.810;8.818;2023-04-25T00:48:53;10.00;68.90
50548;DHT22;38013;48.810;8.818;2023-04-25T00:51:21;10.00;68.80
50548;DHT22;38013;48.810;8.818;2023-04-25T00:53:49;10.00;68.90
50548;DHT22;38013;48.810;8.818;2023-04-25T00:56:17;10.00;68.80
50548;DHT22;38013;48.810;8.818;2023-04-25T00:58:45;9.90;68.70
50548;DHT22;38013;48.810;8.818;2023-04-25T01:01:12;9.90;68.70
50548;DHT22;38013;48.810;8.818;2023-04-25T01:03:40;9.90;68.60
50548;DHT22;38013;48.810;8.818;2023-04-25T01:06:11;9.90;68.60
50548;DHT22;38013;48.810;8.818;2023-04-25T01:08:39;9.80;68.70
50548;DHT22;38013;48.810;8.818;2023-04-25T01:11:06;9.80;68.60
50548;DHT22;38013;48.810;8.818;2023-04-25T01:13:34;9.80;68.60
50548;DHT22;38013;48.810;8.818;2023-04-25T01:16:01;9.80;68.70
50548;DHT22;38013;48.810;8.818;2023-04-25T01:18:29;9.80;68.80
50548;DHT22;38013;48.810;8.818;2023-04-25T01:21:02;9.80;68.70
50548;DHT22;38013;48.810;8.818;2023-04-25T01:23:34;9.80;68.80
50548;DHT22;38013;48.810;8.818;2023-04-25T01:26:01;9.80;68.70
50548;DHT22;38013;48.810;8.818;2023-04-25T01:28:28;9.80;68.70
50548;DHT22;38013;48.810;8.818;2023-04-25T01:30:56;9.80;68.60
50548;DHT22;38013;48.810;8.818;2023-04-25T01:33:24;9.80;68.60
50548;DHT22;38013;48.810;8.818;2023-04-25T01:35:51;9.80;68.50
50548;DHT22;38013;48.810;8.818;2023-04-25T01:38:19;9.80;68.40
50548;DHT22;38013;48.810;8.818;2023-04-25T01:40:46;9.80;68.50
50548;DHT22;38013;48.810;8.818;2023-04-25T01:43:18;9.80;68.70
50548;DHT22;38013;48.810;8.818;2023-04-25T01:45:45;9.70;68.80
50548;DHT22;38013;48.810;8.818;2023-04-25T01:48:13;9.70;68.90
50548;DHT22;38013;48.810;8.818;2023-04-25T01:50:43;9.70;69.10
50548;DHT22;38013;48.810;8.818;2023-04-25T01:53:13;9.70;69.10
50548;DHT22;38013;48.810;8.818;2023-04-25T01:55:43;9.60;69.00
50548;DHT22;38013;48.810;8.818;2023-04-25T01:58:13;9.60;69.00
50548;DHT22;38013;48.810;8.818;2023-04-25T02:01:03;9.60;69.00
50548;DHT22;38013;48.810;8.818;2023-04-25T02:03:38;9.60;69.00
50548;DHT22;38013;48.810;8.818;2023-04-25T02:06:10;9.60;68.90
50548;DHT22;38013;48.810;8.818;2023-04-25T02:08:41;9.60;69.00
50548;DHT22;38013;48.810;8.818;2023-04-25T02:11:11;9.60;69.00
50548;DHT22;38013;48.810;8.818;2023-04-25T02:13:44;9.60;69.00
50548;DHT22;38013;48.810;8.818;2023-04-25T02:16:29;9.60;69.10
50548;DHT22;38013;48.810;8.818;2023-04-25T02:18:59;9.60;69.20
50548;DHT22;38013;48.810;8.818;2023-04-25T02:21:26;9.60;69.20
50548;DHT22;38013;48.810;8.818;2023-04-25T02:23:53;9.60;69.30
50548;DHT22;38013;48.810;8.818;2023-04-25T02:26:20;9.60;69.30
50548;DHT22;38013;48.810;8.818;2023-04-25T02:28:50;9.60;69.40
50548;DHT22;38013;48.810;8.818;2023-04-25T02:31:18;9.60;69.90
50548;DHT22;38013;48.810;8.818;2023-04-25T02:33:45;9.60;69.00
50548;DHT22;38013;48.810;8.818;2023-04-25T02:36:13;9.60;69.10
50548;DHT22;38013;48.810;8.818;2023-04-25T02:38:40;9.60;69.20
50548;DHT22;38013;48.810;8.818;2023-04-25T02:41:07;9.60;69.30
50548;DHT22;38013;48.810;8.818;2023-04-25T02:43:34;9.60;69.40
50548;DHT22;38013;48.810;8.818;2023-04-25T02:46:01;9.70;69.40
50548;DHT22;38013;48.810;8.818;2023-04-25T02:48:28;9.70;69.50
50548;DHT22;38013;48.810;8.818;2023-04-25T02:50:55;9.70;69.50
50548;DHT22;38013;48.810;8.818;2023-04-25T02:53:22;9.70;69.60
50548;DHT22;38013;48.810;8.818;2023-04-25T02:55:51;9.70;69.70
50548;DHT22;38013;48.810;8.818;2023-04-25T02:58:19;9.70;69.80
50548;DHT22;38013;48.810;8.818;2023-04-25T03:00:49;9.70;69.90
50548;DHT22;38013;48.810;8.818;2023-04-25T03:03:16;9.70;69.80
50548;DHT22;38013;48.810;8.818;2023-04-25T03:05:45;9.80;70.00
50548;DHT22;38013;48.810;8.818;2023-04-25T03:08:13;9.70;70.00
50548;DHT22;38013;48.810;8.818;2023-04-25T03:10:40;9.80;70.00
50548;DHT22;38013;48.810;8.818;2023-04-25T03:13:09;9.80;70.00
50548;DHT22;38013;48.810;8.818;2023-04-25T03:15:37;9.80;69.90
50548;DHT22;38013;48.810;8.818;2023-04-25T03:18:04;9.70;69.90
50548;DHT22;38013;48.810;8.818;2023-04-25T03:20:31;9.70;70.00
50548;DHT22;38013;48.810;8.818;2023-04-25T03:22:58;9.70;70.10
50548;DHT22;38013;48.810;8.818;2023-04-25T03:25:27;9.70;70.10
50548;DHT22;38013;48.810;8.818;2023-04-25T03:27:54;9.70;70.10
50548;DHT22;38013;48.810;8.818;2023-04-25T03:30:21;9.70;70.10
50548;DHT22;38013;48.810;8.818;2023-04-25T03:32:49;9.70;70.10
50548;DHT22;38013;48.810;8.818;2023-04-25T03:35:16;9.70;70.10
50548;DHT22;38013;48.810;8.818;2023-04-25T03:37:43;9.70;70.20
50548;DHT22;38013;48.810;8.818;2023-04-25T03:40:18;9.70;70.20
50548;DHT22;38013;48.810;8.818;2023-04-25T03:43:18;9.70;70.20
50548;DHT22;38013;48.810;8.818;2023-04-25T03:45:56;9.70;70.10
50548;DHT22;38013;48.810;8.818;2023-04-25T03:48:25;9.70;70.10
50548;DHT22;38013;48.810;8.818;2023-04-25T03:50:54;9.70;70.20
50548;DHT22;38013;48.810;8.818;2023-04-25T03:53:21;9.70;70.30
50548;DHT22;38013;48.810;8.818;2023-04-25T03:56:14;9.70;70.40
50548;DHT22;38013;48.810;8.818;2023-04-25T03:58:41;9.70;70.30
50548;DHT22;38013;48.810;8.818;2023-04-25T04:01:09;9.60;70.40
50548;DHT22;38013;48.810;8.818;2023-04-25T04:03:38;9.60;70.50
50548;DHT22;38013;48.810;8.818;2023-04-25T04:06:07;9.60;70.50
50548;DHT22;38013;48.810;8.818;2023-04-25T04:08:38;9.70;70.60
50548;DHT22;38013;48.810;8.818;2023-04-25T04:11:05;9.60;70.50
50548;DHT22;38013;48.810;8.818;2023-04-25T04:13:33;9.70;70.60
50548;DHT22;38013;48.810;8.818;2023-04-25T04:16:01;9.60;70.60
50548;DHT22;38013;48.810;8.818;2023-04-25T04:18:28;9.70;70.60
50548;DHT22;38013;48.810;8.818;2023-04-25T04:20:56;9.70;70.60
50548;DHT22;38013;48.810;8.818;2023-04-25T04:23:24;9.70;70.40
50548;DHT22;38013;48.810;8.818;2023-04-25T04:25:54;9.70;70.30
50548;DHT22;38013;48.810;8.818;2023-04-25T04:28:35;9.70;70.30
50548;DHT22;38013;48.810;8.818;2023-04-25T04:31:17;9.70;70.30
50548;DHT22;38013;48.810;8.818;2023-04-25T04:33:46;9.70;70.30
50548;DHT22;38013;48.810;8.818;2023-04-25T04:36:15;9.70;70.30
50548;DHT22;38013;48.810;8.818;2023-04-25T04:38:42;9.70;70.40
50548;DHT22;38013;48.810;8.818;2023-04-25T04:41:18;9.80;70.60
50548;DHT22;38013;48.810;8.818;2023-04-25T04:43:54;9.80;70.60
50548;DHT22;38013;48.810;8.818;2023-04-25T04:46:52;9.80;70.60
50548;DHT22;38013;48.810;8.818;2023-04-25T04:49:31;9.80;70.50
50548;DHT22;38013;48.810;8.818;2023-04-25T04:52:16;9.80;70.60
50548;DHT22;38013;48.810;8.818;2023-04-25T04:55:03;9.80;70.50
50548;DHT22;38013;48.810;8.818;2023-04-25T04:57:44;9.80;70.60
50548;DHT22;38013;48.810;8.818;2023-04-25T05:00:23;9.70;70.50
50548;DHT22;38013;48.810;8.818;2023-04-25T05:03:28;9.70;70.40
50548;DHT22;38013;48.810;8.818;2023-04-25T05:06:11;9.60;70.20
50548;DHT22;38013;48.810;8.818;2023-04-25T05:08:57;9.50;70.60
50548;DHT22;38013;48.810;8.818;2023-04-25T05:11:34;9.50;70.60
50548;DHT22;38013;48.810;8.818;2023-04-25T05:14:19;9.40;70.80
50548;DHT22;38013;48.810;8.818;2023-04-25T05:17:06;9.40;70.90
50548;DHT22;38013;48.810;8.818;2023-04-25T05:19:59;9.30;71.00
50548;DHT22;38013;48.810;8.818;2023-04-25T05:23:04;9.40;71.10
50548;DHT22;38013;48.810;8.818;2023-04-25T05:25:53;9.30;71.00
50548;DHT22;38013;48.810;8.818;2023-04-25T05:28:49;9.40;71.10
50548;DHT22;38013;48.810;8.818;2023-04-25T05:31:36;9.40;71.00
50548;DHT22;38013;48.810;8.818;2023-04-25T05:34:12;9.40;71.00
50548;DHT22;38013;48.810;8.818;2023-04-25T05:36:46;9.40;71.20
50548;DHT22;38013;48.810;8.818;2023-04-25T05:39:16;9.50;71.40
50548;DHT22;38013;48.810;8.818;2023-04-25T05:42:09;9.50;71.40
50548;DHT22;38013;48.810;8.818;2023-04-25T05:44:52;9.60;71.40
50548;DHT22;38013;48.810;8.818;2023-04-25T05:47:37;9.60;71.50
50548;DHT22;38013;48.810;8.818;2023-04-25T05:50:09;9.70;71.50
50548;DHT22;38013;48.810;8.818;2023-04-25T05:52:51;9.70;71.50
50548;DHT22;38013;48.810;8.818;2023-04-25T05:55:30;9.70;71.40
50548;DHT22;38013;48.810;8.818;2023-04-25T05:57:59;9.80;71.50
50548;DHT22;38013;48.810;8.818;2023-04-25T06:00:26;9.80;71.30
50548;DHT22;38013;48.810;8.818;2023-04-25T06:02:53;9.90;71.30
50548;DHT22;38013;48.810;8.818;2023-04-25T06:05:21;9.90;71.40
50548;DHT22;38013;48.810;8.818;2023-04-25T06:07:48;10.00;71.40
50548;DHT22;38013;48.810;8.818;2023-04-25T06:10:15;10.00;71.30
50548;DHT22;38013;48.810;8.818;2023-04-25T06:12:42;10.10;71.30
50548;DHT22;38013;48.810;8.818;2023-04-25T06:15:10;10.10;71.30
50548;DHT22;38013;48.810;8.818;2023-04-25T06:17:53;10.20;71.30
50548;DHT22;38013;48.810;8.818;2023-04-25T06:20:21;10.20;71.20
50548;DHT22;38013;48.810;8.818;2023-04-25T06:22:51;10.20;71.10
50548;DHT22;38013;48.810;8.818;2023-04-25T06:25:22;10.20;71.40
50548;DHT22;38013;48.810;8.818;2023-04-25T06:27:50;10.30;70.70
50548;DHT22;38013;48.810;8.818;2023-04-25T06:30:17;10.30;70.70
50548;DHT22;38013;48.810;8.818;2023-04-25T06:32:50;10.30;70.80
50548;DHT22;38013;48.810;8.818;2023-04-25T06:35:18;10.30;70.90
50548;DHT22;38013;48.810;8.818;2023-04-25T06:37:46;10.30;71.00
50548;DHT22;38013;48.810;8.818;2023-04-25T06:40:13;10.30;71.00
50548;DHT22;38013;48.810;8.818;2023-04-25T06:42:40;10.30;71.10
50548;DHT22;38013;48.810;8.818;2023-04-25T06:45:36;10.30;71.30
50548;DHT22;38013;48.810;8.818;2023-04-25T06:48:03;10.30;71.30
50548;DHT22;38013;48.810;8.818;2023-04-25T06:50:30;10.40;71.30
50548;DHT22;38013;48.810;8.818;2023-04-25T06:52:57;10.40;71.30
50548;DHT22;38013;48.810;8.818;2023-04-25T06:55:24;10.40;71.40
50548;DHT22;38013;48.810;8.818;2023-04-25T06:58:07;10.40;71.50
50548;DHT22;38013;48.810;8.818;2023-04-25T07:00:53;10.40;71.30
50548;DHT22;38013;48.810;8.818;2023-04-25T07:03:23;10.40;71.30
50548;DHT22;38013;48.810;8.818;2023-04-25T07:05:55;10.40;71.20
50548;DHT22;38013;48.810;8.818;2023-04-25T07:08:23;10.40;71.90
50548;DHT22;38013;48.810;8.818;2023-04-25T07:10:50;10.40;71.40
50548;DHT22;38013;48.810;8.818;2023-04-25T07:13:17;10.40;71.50
50548;DHT22;38013;48.810;8.818;2023-04-25T07:15:44;10.40;71.50
50548;DHT22;38013;48.810;8.818;2023-04-25T07:18:12;10.50;71.50
50548;DHT22;38013;48.810;8.818;2023-04-25T07:20:39;10.40;71.20
50548;DHT22;38013;48.810;8.818;2023-04-25T07:23:06;10.50;71.00
50548;DHT22;38013;48.810;8.818;2023-04-25T07:25:33;10.40;70.70
50548;DHT22;38013;48.810;8.818;2023-04-25T07:28:00;10.40;70.50
50548;DHT22;38013;48.810;8.818;2023-04-25T07:30:27;10.40;70.70
50548;DHT22;38013;48.810;8.818;2023-04-25T07:32:54;10.40;70.80
50548;DHT22;38013;48.810;8.818;2023-04-25T07:35:22;10.30;70.90
50548;DHT22;38013;48.810;8.818;2023-04-25T07:37:49;10.30;71.00
50548;DHT22;38013;48.810;8.818;2023-04-25T07:40:18;10.30;71.10
50548;DHT22;38013;48.810;8.818;2023-04-25T07:42:49;10.20;71.10
50548;DHT22;38013;48.810;8.818;2023-04-25T07:45:22;10.20;71.00
50548;DHT22;38013;48.810;8.818;2023-04-25T07:47:52;10.20;71.10
50548;DHT22;38013;48.810;8.818;2023-04-25T07:50:19;10.10;71.10
50548;DHT22;38013;48.810;8.818;2023-04-25T07:52:46;10.10;71.30
50548;DHT22;38013;48.810;8.818;2023-04-25T07:55:22;10.20;71.40
50548;DHT22;38013;48.810;8.818;2023-04-25T07:57:58;10.20;71.40
50548;DHT22;38013;48.810;8.818;2023-04-25T08:00:29;10.10;71.30
50548;DHT22;38013;48.810;8.818;2023-04-25T08:03:15;10.10;71.40
50548;DHT22;38013;48.810;8.818;2023-04-25T08:05:43;10.10;71.50
50548;DHT22;38013;48.810;8.818;2023-04-25T08:08:12;10.10;71.70
50548;DHT22;38013;48.810;8.818;2023-04-25T08:10:38;10.10;71.90
50548;DHT22;38013;48.810;8.818;2023-04-25T08:13:05;10.10;72.00
50548;DHT22;38013;48.810;8.818;2023-04-25T08:15:33;10.10;72.10
50548;DHT22;38013;48.810;8.818;2023-04-25T08:18:00;10.10;72.30
50548;DHT22;38013;48.810;8.818;2023-04-25T08:20:27;10.20;72.40
50548;DHT22;38013;48.810;8.818;2023-04-25T08:22:57;10.10;72.40
50548;DHT22;38013;48.810;8.818;2023-04-25T08:25:40;10.20;72.50
50548;DHT22;38013;48.810;8.818;2023-04-25T08:28:08;10.20;72.30
50548;DHT22;38013;48.810;8.818;2023-04-25T08:30:36;10.20;72.10
50548;DHT22;38013;48.810;8.818;2023-04-25T08:33:04;10.10;71.90
50548;DHT22;38013;48.810;8.818;2023-04-25T08:35:47;10.10;71.90
50548;DHT22;38013;48.810;8.818;2023-04-25T08:38:14;10.10;72.10
50548;DHT22;38013;48.810;8.818;2023-04-25T08:40:43;10.00;73.00
50548;DHT22;38013;48.810;8.818;2023-04-25T08:43:16;10.00;72.70
50548;DHT22;38013;48.810;8.818;2023-04-25T08:45:46;10.00;72.70
50548;DHT22;38013;48.810;8.818;2023-04-25T08:48:24;10.00;72.50
50548;DHT22;38013;48.810;8.818;2023-04-25T08:50:55;9.90;72.40
50548;DHT22;38013;48.810;8.818;2023-04-25T08:53:29;9.90;72.30
50548;DHT22;38013;48.810;8.818;2023-04-25T08:56:01;9.80;72.60
50548;DHT22;38013;48.810;8.818;2023-04-25T08:58:32;9.70;72.30
50548;DHT22;38013;48.810;8.818;2023-04-25T09:00:59;9.70;72.00
50548;DHT22;38013;48.810;8.818;2023-04-25T09:03:31;9.60;71.80
50548;DHT22;38013;48.810;8.818;2023-04-25T09:05:58;9.50;71.70
50548;DHT22;38013;48.810;8.818;2023-04-25T09:08:25;9.40;71.80
50548;DHT22;38013;48.810;8.818;2023-04-25T09:10:52;9.30;71.90
50548;DHT22;38013;48.810;8.818;2023-04-25T09:13:26;9.20;72.20
50548;DHT22;38013;48.810;8.818;2023-04-25T09:16:19;9.20;72.80
50548;DHT22;38013;48.810;8.818;2023-04-25T09:19:07;9.10;72.90
50548;DHT22;38013;48.810;8.818;2023-04-25T09:21:34;9.10;72.40
50548;DHT22;38013;48.810;8.818;2023-04-25T09:24:02;9.10;73.30
50548;DHT22;38013;48.810;8.818;2023-04-25T09:26:29;9.00;73.10
50548;DHT22;38013;48.810;8.818;2023-04-25T09:29:06;9.10;73.20
50548;DHT22;38013;48.810;8.818;2023-04-25T09:31:36;9.00;73.80
50548;DHT22;38013;48.810;8.818;2023-04-25T09:34:04;9.00;72.80
50548;DHT22;38013;48.810;8.818;2023-04-25T09:36:41;9.00;72.90
50548;DHT22;38013;48.810;8.818;2023-04-25T09:39:40;9.00;73.10
50548;DHT22;38013;48.810;8.818;2023-04-25T09:42:14;9.00;73.10
50548;DHT22;38013;48.810;8.818;2023-04-25T09:44:46;9.00;73.20
50548;DHT22;38013;48.810;8.818;2023-04-25T09:47:15;9.10;73.30
50548;DHT22;38013;48.810;8.818;2023-04-25T09:49:44;9.10;73.20
50548;DHT22;38013;48.810;8.818;2023-04-25T09:52:17;9.10;73.50
50548;DHT22;38013;48.810;8.818;2023-04-25T09:55:11;9.20;74.10
50548;DHT22;38013;48.810;8.818;2023-04-25T09:57:38;9.20;73.70
50548;DHT22;38013;48.810;8.818;2023-04-25T10:00:09;9.30;73.70
50548;DHT22;38013;48.810;8.818;2023-04-25T10:02:46;9.30;73.80
50548;DHT22;38013;48.810;8.818;2023-04-25T10:05:41;9.40;73.40
50548;DHT22;38013;48.810;8.818;2023-04-25T10:08:11;9.40;73.10
50548;DHT22;38013;48.810;8.818;2023-04-25T10:10:40;9.40;72.90
50548;DHT22;38013;48.810;8.818;2023-04-25T10:13:07;9.40;72.80
50548;DHT22;38013;48.810;8.818;2023-04-25T10:15:35;9.50;72.70
50548;DHT22;38013;48.810;8.818;2023-04-25T10:18:06;9.50;72.70
50548;DHT22;38013;48.810;8.818;2023-04-25T10:20:33;9.50;72.60
50548;DHT22;38013;48.810;8.818;2023-04-25T10:23:13;9.50;72.70
50548;DHT22;38013;48.810;8.818;2023-04-25T10:25:41;9.50;72.80
50548;DHT22;38013;48.810;8.818;2023-04-25T10:28:08;9.50;72.50
50548;DHT22;38013;48.810;8.818;2023-04-25T10:30:35;9.50;72.30
50548;DHT22;38013;48.810;8.818;2023-04-25T10:33:16;9.40;72.60
50548;DHT22;38013;48.810;8.818;2023-04-25T10:35:45;9.40;74.20
50548;DHT22;38013;48.810;8.818;2023-04-25T10:38:14;9.40;73.60
50548;DHT22;38013;48.810;8.818;2023-04-25T10:40:41;9.40;73.80
50548;DHT22;38013;48.810;8.818;2023-04-25T10:43:40;9.40;73.60
50548;DHT22;38013;48.810;8.818;2023-04-25T10:46:27;9.30;73.70
50548;DHT22;38013;48.810;8.818;2023-04-25T10:49:01;9.30;74.20
50548;DHT22;38013;48.810;8.818;2023-04-25T10:51:33;9.20;73.60
50548;DHT22;38013;48.810;8.818;2023-04-25T10:54:22;9.10;73.80
50548;DHT22;38013;48.810;8.818;2023-04-25T10:56:52;9.10;74.00
50548;DHT22;38013;48.810;8.818;2023-04-25T10:59:19;9.00;74.00
50548;DHT22;38013;48.810;8.818;2023-04-25T11:01:54;8.90;73.90
50548;DHT22;38013;48.810;8.818;2023-04-25T11:04:31;8.90;74.50
50548;DHT22;38013;48.810;8.818;2023-04-25T11:09:35;8.80;74.50
50548;DHT22;38013;48.810;8.818;2023-04-25T11:12:04;8.80;74.50
50548;DHT22;38013;48.810;8.818;2023-04-25T11:14:31;8.80;74.70
50548;DHT22;38013;48.810;8.818;2023-04-25T11:16:59;8.80;74.80
50548;DHT22;38013;48.810;8.818;2023-04-25T11:19:28;8.80;74.80
50548;DHT22;38013;48.810;8.818;2023-04-25T11:21:59;8.80;75.00
50548;DHT22;38013;48.810;8.818;2023-04-25T11:24:27;8.70;75.00
50548;DHT22;38013;48.810;8.818;2023-04-25T11:26:56;8.80;74.80
50548;DHT22;38013;48.810;8.818;2023-04-25T11:29:31;8.80;74.50
50548;DHT22;38013;48.810;8.818;2023-04-25T11:31:59;8.80;74.60
50548;DHT22;38013;48.810;8.818;2023-04-25T11:34:32;8.80;74.70
50548;DHT22;38013;48.810;8.818;2023-04-25T11:37:01;8.80;75.20
50548;DHT22;38013;48.810;8.818;2023-04-25T11:39:29;8.80;74.90
50548;DHT22;38013;48.810;8.818;2023-04-25T11:41:56;8.80;74.60
50548;DHT22;38013;48.810;8.818;2023-04-25T11:44:23;8.80;75.00
50548;DHT22;38013;48.810;8.818;2023-04-25T11:46:50;8.90;75.30
50548;DHT22;38013;48.810;8.818;2023-04-25T11:49:17;8.90;74.80
50548;DHT22;38013;48.810;8.818;2023-04-25T11:51:46;9.00;74.40
50548;DHT22;38013;48.810;8.818;2023-04-25T11:54:14;9.00;74.30
50548;DHT22;38013;48.810;8.818;2023-04-25T11:56:45;9.00;74.30
50548;DHT22;38013;48.810;8.818;2023-04-25T11:59:13;9.00;74.30
50548;DHT22;38013;48.810;8.818;2023-04-25T12:01:41;9.10;74.40
50548;DHT22;38013;48.810;8.818;2023-04-25T12:04:16;9.10;74.60
50548;DHT22;38013;48.810;8.818;2023-04-25T12:06:45;9.10;74.70
50548;DHT22;38013;48.810;8.818;2023-04-25T12:09:16;9.20;74.50
50548;DHT22;38013;48.810;8.818;2023-04-25T12:11:47;9.20;74.40
50548;DHT22;38013;48.810;8.818;2023-04-25T12:14:26;9.30;74.30
50548;DHT22;38013;48.810;8.818;2023-04-25T12:17:02;9.30;74.80
50548;DHT22;38013;48.810;8.818;2023-04-25T12:19:35;9.40;75.30
50548;DHT22;38013;48.810;8.818;2023-04-25T12:22:03;9.60;75.30
50548;DHT22;38013;48.810;8.818;2023-04-25T12:24:50;9.70;75.40
50548;DHT22;38013;48.810;8.818;2023-04-25T12:27:18;9.90;74.70
50548;DHT22;38013;48.810;8.818;2023-04-25T12:29:54;10.00;74.40
50548;DHT22;38013;48.810;8.818;2023-04-25T12:32:22;10.10;73.70
50548;DHT22;38013;48.810;8.818;2023-04-25T12:34:49;10.30;73.40
50548;DHT22;38013;48.810;8.818;2023-04-25T12:37:16;10.40;73.20
50548;DHT22;38013;48.810;8.818;2023-04-25T12:39:43;10.40;73.00
50548;DHT22;38013;48.810;8.818;2023-04-25T12:42:09;10.50;73.10
50548;DHT22;38013;48.810;8.818;2023-04-25T12:44:39;10.50;72.30
50548;DHT22;38013;48.810;8.818;2023-04-25T12:47:07;10.50;72.30
50548;DHT22;38013;48.810;8.818;2023-04-25T12:49:34;10.60;72.10
50548;DHT22;38013;48.810;8.818;2023-04-25T12:52:01;10.60;72.00
50548;DHT22;38013;48.810;8.818;2023-04-25T12:54:28;10.60;72.00
50548;DHT22;38013;48.810;8.818;2023-04-25T12:56:55;10.60;72.10
50548;DHT22;38013;48.810;8.818;2023-04-25T12:59:21;10.60;72.40
50548;DHT22;38013;48.810;8.818;2023-04-25T13:01:48;10.60;72.20
50548;DHT22;38013;48.810;8.818;2023-04-25T13:04:16;10.60;71.80
50548;DHT22;38013;48.810;8.818;2023-04-25T13:06:44;10.70;71.90
50548;DHT22;38013;48.810;8.818;2023-04-25T13:09:11;10.70;72.50
50548;DHT22;38013;48.810;8.818;2023-04-25T13:11:38;10.70;71.90
50548;DHT22;38013;48.810;8.818;2023-04-25T13:14:07;10.70;71.90
50548;DHT22;38013;48.810;8.818;2023-04-25T13:16:33;10.60;71.80
50548;DHT22;38013;48.810;8.818;2023-04-25T13:19:01;10.70;71.10
50548;DHT22;38013;48.810;8.818;2023-04-25T13:21:30;10.70;70.90
50548;DHT22;38013;48.810;8.818;2023-04-25T13:23:58;10.70;71.60
50548;DHT22;38013;48.810;8.818;2023-04-25T13:26:25;10.80;71.90
50548;DHT22;38013;48.810;8.818;2023-04-25T13:28:52;10.80;72.10
50548;DHT22;38013;48.810;8.818;2023-04-25T13:31:19;10.90;72.10
50548;DHT22;38013;48.810;8.818;2023-04-25T13:33:46;11.00;71.80
50548;DHT22;38013;48.810;8.818;2023-04-25T13:36:13;11.00;71.30
50548;DHT22;38013;48.810;8.818;2023-04-25T13:38:40;11.00;71.40
50548;DHT22;38013;48.810;8.818;2023-04-25T13:41:10;11.10;71.50
50548;DHT22;38013;48.810;8.818;2023-04-25T13:43:40;11.10;71.60
50548;DHT22;38013;48.810;8.818;2023-04-25T13:46:07;11.20;71.60
50548;DHT22;38013;48.810;8.818;2023-04-25T13:48:35;11.20;71.10
50548;DHT22;38013;48.810;8.818;2023-04-25T13:51:02;11.30;70.80
50548;DHT22;38013;48.810;8.818;2023-04-25T13:53:29;11.30;70.80
50548;DHT22;38013;48.810;8.818;2023-04-25T13:55:56;11.40;70.90
50548;DHT22;38013;48.810;8.818;2023-04-25T13:58:23;11.40;70.80
50548;DHT22;38013;48.810;8.818;2023-04-25T14:00:50;11.50;71.20
50548;DHT22;38013;48.810;8.818;2023-04-25T14:03:17;11.50;70.70
50548;DHT22;38013;48.810;8.818;2023-04-25T14:05:43;11.60;70.40
50548;DHT22;38013;48.810;8.818;2023-04-25T14:08:10;11.60;70.20
50548;DHT22;38013;48.810;8.818;2023-04-25T14:10:37;11.60;69.70
50548;DHT22;38013;48.810;8.818;2023-04-25T14:13:04;11.60;69.50
50548;DHT22;38013;48.810;8.818;2023-04-25T14:15:33;11.60;69.30
50548;DHT22;38013;48.810;8.818;2023-04-25T14:18:01;11.60;69.20
50548;DHT22;38013;48.810;8.818;2023-04-25T14:20:28;11.70;69.80
50548;DHT22;38013;48.810;8.818;2023-04-25T14:22:56;11.70;69.80
50548;DHT22;38013;48.810;8.818;2023-04-25T14:25:24;11.80;70.20
50548;DHT22;38013;48.810;8.818;2023-04-25T14:27:51;11.90;69.70
50548;DHT22;38013;48.810;8.818;2023-04-25T14:30:20;12.00;69.40
50548;DHT22;38013;48.810;8.818;2023-04-25T14:32:50;12.00;69.10
50548;DHT22;38013;48.810;8.818;2023-04-25T14:35:17;12.10;68.60
50548;DHT22;38013;48.810;8.818;2023-04-25T14:37:44;12.30;68.00
50548;DHT22;38013;48.810;8.818;2023-04-25T14:40:12;12.30;68.00
50548;DHT22;38013;48.810;8.818;2023-04-25T14:42:41;12.40;67.90
50548;DHT22;38013;48.810;8.818;2023-04-25T14:45:09;12.50;67.80
50548;DHT22;38013;48.810;8.818;2023-04-25T14:47:36;12.60;68.20
50548;DHT22;38013;48.810;8.818;2023-04-25T14:50:07;12.80;67.90
50548;DHT22;38013;48.810;8.818;2023-04-25T14:52:35;12.90;67.10
50548;DHT22;38013;48.810;8.818;2023-04-25T14:55:02;13.00;67.00
50548;DHT22;38013;48.810;8.818;2023-04-25T14:57:32;13.10;66.40
50548;DHT22;38013;48.810;8.818;2023-04-25T15:00:01;13.30;65.80
50548;DHT22;38013;48.810;8.818;2023-04-25T15:02:28;13.40;65.20
50548;DHT22;38013;48.810;8.818;2023-04-25T15:04:55;13.50;65.00
50548;DHT22;38013;48.810;8.818;2023-04-25T15:07:23;13.60;64.70
50548;DHT22;38013;48.810;8.818;2023-04-25T15:09:50;13.80;65.20
50548;DHT22;38013;48.810;8.818;2023-04-25T15:12:17;14.10;65.00
50548;DHT22;38013;48.810;8.818;2023-04-25T15:14:44;14.40;64.50
50548;DHT22;38013;48.810;8.818;2023-04-25T15:17:11;14.60;63.30
50548;DHT22;38013;48.810;8.818;2023-04-25T15:19:40;14.80;62.70
50548;DHT22;38013;48.810;8.818;2023-04-25T15:22:07;14.90;61.60
50548;DHT22;38013;48.810;8.818;2023-04-25T15:24:34;14.90;61.00
50548;DHT22;38013;48.810;8.818;2023-04-25T15:27:01;15.00;61.00
50548;DHT22;38013;48.810;8.818;2023-04-25T15:29:29;15.00;60.40
50548;DHT22;38013;48.810;8.818;2023-04-25T15:31:56;15.00;60.20
50548;DHT22;38013;48.810;8.818;2023-04-25T15:34:23;14.90;59.70
50548;DHT22;38013;48.810;8.818;2023-04-25T15:36:50;14.80;59.40
50548;DHT22;38013;48.810;8.818;2023-04-25T15:39:17;14.70;59.30
50548;DHT22;38013;48.810;8.818;2023-04-25T15:41:44;14.60;59.00
50548;DHT22;38013;48.810;8.818;2023-04-25T15:44:11;14.40;59.30
50548;DHT22;38013;48.810;8.818;2023-04-25T15:46:38;14.20;59.30
50548;DHT22;38013;48.810;8.818;2023-04-25T15:49:05;14.00;59.60
50548;DHT22;38013;48.810;8.818;2023-04-25T15:51:32;13.80;60.40
50548;DHT22;38013;48.810;8.818;2023-04-25T15:53:59;13.60;60.30
50548;DHT22;38013;48.810;8.818;2023-04-25T15:56:27;13.40;60.60
50548;DHT22;38013;48.810;8.818;2023-04-25T15:58:54;13.30;60.70
50548;DHT22;38013;48.810;8.818;2023-04-25T16:01:22;13.20;61.10
50548;DHT22;38013;48.810;8.818;2023-04-25T16:03:50;13.00;61.10
50548;DHT22;38013;48.810;8.818;2023-04-25T16:06:19;12.90;61.40